Terminal Aerodrome Forecast
Issued by NWS Jacksonville, FL

Home | Current Version | Previous Version | Text Only | Print | Product List | Glossary On
Versions: 1 2 3 4 5 6 7 8 9 10 11 12 13 14 15 16 17 18
000
FTUS42 KJAX 250520
TAFJAX
TAF
KJAX 250520Z 2506/2606 00000KT P6SM FEW040 SCT250
     FM250900 00000KT 4SM BR FEW250
     FM251300 35005KT P6SM SCT030
     FM251700 06010KT P6SM VCTS BKN040CB
     FM252200 07007KT P6SM VCSH SCT050=

USA.gov is the U.S. government's official web portal to all federal, state and local government web resources and services.